createdAt,value
2018-01-13T00:02:00.533Z,101.90
2018-01-13T00:04:27.930Z,109.37
2018-01-13T00:06:55.496Z,97.73
2018-01-13T00:09:22.862Z,102.73
2018-01-13T00:11:50.245Z,99.77
2018-01-13T00:14:17.642Z,105.97
2018-01-13T00:16:45.007Z,116.73
2018-01-13T00:19:12.393Z,105.20
2018-01-13T00:21:39.925Z,108.53
2018-01-13T00:24:07.288Z,94.57
2018-01-13T00:26:34.664Z,102.53
2018-01-13T00:29:02.070Z,123.30
2018-01-13T00:31:29.477Z,107.87
2018-01-13T00:33:56.861Z,108.10
2018-01-13T00:36:24.220Z,93.67
2018-01-13T00:38:51.650Z,105.50
2018-01-13T00:41:19.069Z,100.27
2018-01-13T00:43:46.433Z,108.87
2018-01-13T00:46:14.161Z,112.40
2018-01-13T00:48:41.529Z,102.83
2018-01-13T00:51:08.912Z,100.90
2018-01-13T00:53:36.305Z,104.40
2018-01-13T00:56:03.664Z,98.50
2018-01-13T00:58:31.044Z,101.30
2018-01-13T01:00:58.453Z,93.17
2018-01-13T01:03:25.827Z,101.37
2018-01-13T01:05:53.186Z,97.23
2018-01-13T01:08:20.597Z,99.53
2018-01-13T01:10:47.981Z,98.00
2018-01-13T01:13:15.389Z,100.47
2018-01-13T01:15:42.808Z,95.20
2018-01-13T01:18:10.192Z,91.43
2018-01-13T01:20:37.548Z,94.23
2018-01-13T01:23:04.958Z,86.30
2018-01-13T01:25:32.348Z,91.43
2018-01-13T01:27:59.727Z,96.77
2018-01-13T01:30:27.280Z,91.93
2018-01-13T01:32:54.637Z,87.47
2018-01-13T01:35:22.073Z,101.97
2018-01-13T01:37:49.492Z,94.80
2018-01-13T01:40:16.857Z,97.10
2018-01-13T01:42:44.269Z,91.93
2018-01-13T01:45:11.688Z,101.63
2018-01-13T01:47:39.070Z,95.10
2018-01-13T01:50:06.439Z,96.60
2018-01-13T01:52:33.860Z,95.13
2018-01-13T01:55:01.221Z,105.30
2018-01-13T01:57:28.617Z,96.53
2018-01-13T01:59:55.968Z,93.97
2018-01-13T02:02:23.345Z,104.40
2018-01-13T02:04:50.764Z,104.70
2018-01-13T02:07:18.144Z,99.80
2018-01-13T02:09:45.536Z,110.07
2018-01-13T02:12:12.942Z,95.33
2018-01-13T02:14:40.295Z,95.70
2018-01-13T02:17:07.680Z,109.83
2018-01-13T02:19:35.083Z,101.83
2018-01-13T02:22:02.441Z,102.47
2018-01-13T02:24:29.805Z,103.53
2018-01-13T02:26:57.337Z,93.07
2018-01-13T02:29:24.726Z,100.27
2018-01-13T02:31:52.090Z,100.10
2018-01-13T02:34:19.607Z,107.03
2018-01-13T02:36:46.969Z,113.10
2018-01-13T02:39:14.348Z,102.50
2018-01-13T02:41:41.788Z,113.70
2018-01-13T02:44:09.154Z,113.13
2018-01-13T02:46:36.553Z,111.93
2018-01-13T02:49:03.913Z,101.00
2018-01-13T02:51:31.293Z,104.63
2018-01-13T02:53:58.725Z,104.57
2018-01-13T02:56:26.121Z,90.07
2018-01-13T02:58:53.509Z,110.83
2018-01-13T03:01:20.916Z,119.50
2018-01-13T03:03:48.305Z,107.00
2018-01-13T03:06:15.689Z,122.47
2018-01-13T03:08:43.281Z,105.17
2018-01-13T03:11:10.645Z,113.60
2018-01-13T03:13:38.032Z,123.87
2018-01-13T03:16:05.456Z,107.33
2018-01-13T03:18:32.841Z,114.03
2018-01-13T03:21:00.236Z,107.00
2018-01-13T03:23:27.680Z,125.63
2018-01-13T03:25:55.072Z,109.73
2018-01-13T03:28:23.140Z,117.43
2018-01-13T03:30:50.677Z,126.73
2018-01-13T03:33:18.056Z,122.23
2018-01-13T03:35:45.903Z,115.97
2018-01-13T03:38:13.306Z,114.57
2018-01-13T03:40:40.696Z,121.10
2018-01-13T03:43:08.084Z,116.50
2018-01-13T03:45:35.489Z,112.37
2018-01-13T03:48:02.875Z,118.60
2018-01-13T03:50:30.269Z,111.20
2018-01-13T03:52:57.662Z,119.30
2018-01-13T03:55:25.095Z,103.40
2018-01-13T03:57:52.481Z,114.77
2018-01-13T04:00:19.874Z,119.30
2018-01-13T04:02:47.356Z,107.13
2018-01-13T04:05:14.739Z,117.17
2018-01-13T04:07:42.100Z,122.23
2018-01-13T04:10:09.508Z,108.70
2018-01-13T04:12:36.936Z,121.40
2018-01-13T04:15:04.293Z,109.70
2018-01-13T04:17:31.677Z,107.40
2018-01-13T04:19:59.088Z,115.20
2018-01-13T04:22:26.473Z,110.40
2018-01-13T04:24:53.876Z,106.30
2018-01-13T04:27:21.294Z,118.17
2018-01-13T04:29:48.785Z,104.30
2018-01-13T04:32:16.177Z,105.30
2018-01-13T04:34:43.696Z,107.40
2018-01-13T04:37:11.161Z,118.67
2018-01-13T04:39:38.891Z,106.10
2018-01-13T04:42:06.283Z,108.53
2018-01-13T04:44:34.452Z,99.00
2018-01-13T04:47:01.894Z,110.57
2018-01-13T04:49:29.318Z,107.60
2018-01-13T04:51:56.704Z,105.80
2018-01-13T04:54:24.092Z,105.83
2018-01-13T04:56:51.493Z,102.07
2018-01-13T04:59:18.928Z,105.87
2018-01-13T05:01:46.329Z,94.87
2018-01-13T05:04:13.709Z,100.83
2018-01-13T05:06:41.138Z,95.63
2018-01-13T05:09:08.500Z,105.63
2018-01-13T05:11:35.867Z,94.73
2018-01-13T05:14:03.289Z,97.77
2018-01-13T05:16:30.741Z,92.63
2018-01-13T05:18:58.106Z,104.40
2018-01-13T05:21:25.500Z,105.60
2018-01-13T05:23:52.863Z,102.10
2018-01-13T05:26:20.253Z,91.43
2018-01-13T05:28:47.676Z,102.27
2018-01-13T05:31:15.072Z,95.53
2018-01-13T05:33:42.429Z,97.30
2018-01-13T05:36:13.315Z,85.93
2018-01-13T05:38:40.722Z,93.43
2018-01-13T05:41:08.120Z,87.70
2018-01-13T05:43:35.549Z,98.33
2018-01-13T05:46:02.932Z,88.10
2018-01-13T05:48:30.293Z,84.57
2018-01-13T05:50:57.692Z,86.33
2018-01-13T05:53:25.127Z,94.60
2018-01-13T05:55:52.485Z,86.57
2018-01-13T05:58:19.857Z,83.20
2018-01-13T06:00:47.274Z,83.97
2018-01-13T06:03:14.665Z,89.37
2018-01-13T06:05:42.042Z,92.17
2018-01-13T06:08:09.700Z,78.67
2018-01-13T06:10:37.058Z,73.37
2018-01-13T06:13:05.139Z,83.90
2018-01-13T06:15:32.681Z,76.73
2018-01-13T06:18:00.052Z,73.43
2018-01-13T06:20:27.425Z,74.37
2018-01-13T06:22:54.849Z,80.80
2018-01-13T06:25:22.280Z,77.20
2018-01-13T06:27:49.729Z,70.43
2018-01-13T06:30:17.131Z,73.60
2018-01-13T06:32:44.517Z,77.23
2018-01-13T06:35:11.897Z,67.03
2018-01-13T06:37:39.285Z,75.33
2018-01-13T06:40:06.676Z,81.07
2018-01-13T06:42:34.083Z,76.90
2018-01-13T06:45:01.478Z,70.07
2018-01-13T06:47:28.859Z,76.93
2018-01-13T06:49:56.250Z,66.40
2018-01-13T06:52:23.713Z,72.53
2018-01-13T06:54:51.101Z,68.53
2018-01-13T06:57:18.492Z,72.00
2018-01-13T06:59:45.881Z,61.17
2018-01-13T07:02:13.517Z,65.57
2018-01-13T07:04:40.889Z,70.23
2018-01-13T07:07:08.265Z,59.90
2018-01-13T07:09:35.666Z,62.10
2018-01-13T07:12:03.026Z,63.97
2018-01-13T07:14:30.393Z,66.67
2018-01-13T07:16:57.800Z,62.70
2018-01-13T07:19:25.168Z,65.60
2018-01-13T07:21:52.587Z,64.10
2018-01-13T07:24:20.020Z,55.30
2018-01-13T07:26:47.401Z,64.53
2018-01-13T07:29:15.053Z,65.93
2018-01-13T07:31:42.622Z,66.40
2018-01-13T07:34:10.026Z,55.73
2018-01-13T07:36:37.457Z,65.90
2018-01-13T07:39:04.832Z,54.57
2018-01-13T07:41:32.194Z,57.50
2018-01-13T07:43:59.573Z,65.37
2018-01-13T07:46:27.020Z,53.27
2018-01-13T07:48:54.459Z,51.30
2018-01-13T07:51:21.833Z,59.50
2018-01-13T07:53:49.269Z,53.60
2018-01-13T07:56:16.629Z,55.03
2018-01-13T07:58:43.986Z,51.50
2018-01-13T08:01:11.491Z,51.00
2018-01-13T08:03:38.853Z,53.27
2018-01-13T08:06:06.231Z,48.37
2018-01-13T08:08:33.688Z,55.43
2018-01-13T08:11:01.069Z,51.30
2018-01-13T08:13:28.469Z,46.10
2018-01-13T08:15:56.020Z,47.60
2018-01-13T08:18:23.392Z,48.67
2018-01-13T08:20:50.765Z,46.63
2018-01-13T08:23:18.290Z,43.27
2018-01-13T08:25:45.726Z,46.63
2018-01-13T08:28:13.159Z,48.93
2018-01-13T08:30:40.592Z,48.40
2018-01-13T08:33:07.998Z,43.37
2018-01-13T08:35:35.353Z,43.97
2018-01-13T08:38:02.909Z,40.70
2018-01-13T08:40:30.293Z,43.67
2018-01-13T08:42:57.741Z,45.73
2018-01-13T08:45:25.150Z,41.90
2018-01-13T08:47:52.528Z,43.03
2018-01-13T08:50:19.894Z,40.20
2018-01-13T08:52:47.286Z,41.67
2018-01-13T08:55:14.700Z,40.50
2018-01-13T08:57:42.072Z,40.60
2018-01-13T09:00:09.477Z,40.40
2018-01-13T09:02:36.833Z,46.10
2018-01-13T09:05:04.271Z,40.43
2018-01-13T09:07:31.670Z,38.37
2018-01-13T09:09:59.153Z,44.33
2018-01-13T09:12:26.592Z,41.93
2018-01-13T09:14:54.010Z,39.97
2018-01-13T09:17:21.387Z,42.20
2018-01-13T09:19:48.785Z,37.50
2018-01-13T09:22:16.145Z,44.83
2018-01-13T09:24:43.519Z,42.83
2018-01-13T09:27:10.944Z,37.27
2018-01-13T09:29:38.325Z,37.87
2018-01-13T09:32:05.934Z,38.67
2018-01-13T09:34:33.294Z,42.30
2018-01-13T09:37:00.657Z,43.53
2018-01-13T09:39:28.129Z,38.23
2018-01-13T09:41:55.564Z,39.83
2018-01-13T09:44:22.929Z,42.03
2018-01-13T09:46:50.448Z,35.07
2018-01-13T09:49:17.817Z,38.27
2018-01-13T09:51:45.205Z,42.53
2018-01-13T09:54:12.609Z,38.50
2018-01-13T09:56:40.039Z,35.10
2018-01-13T09:59:07.483Z,35.60
2018-01-13T10:01:35.132Z,39.13
2018-01-13T10:04:02.489Z,36.37
2018-01-13T10:06:29.957Z,36.83
2018-01-13T10:08:57.350Z,34.40
2018-01-13T10:11:24.941Z,34.03
2018-01-13T10:13:52.412Z,31.67
2018-01-13T10:16:19.837Z,38.00
2018-01-13T10:18:47.269Z,38.30
2018-01-13T10:21:14.648Z,35.00
2018-01-13T10:23:42.035Z,34.33
2018-01-13T10:26:09.448Z,34.77
2018-01-13T10:28:36.806Z,34.57
2018-01-13T10:31:04.321Z,33.17
2018-01-13T10:33:31.739Z,40.43
2018-01-13T10:35:59.097Z,36.30
2018-01-13T10:38:26.449Z,35.40
2018-01-13T10:40:53.841Z,40.90
2018-01-13T10:43:21.268Z,36.10
2018-01-13T10:45:48.629Z,36.50
2018-01-13T10:48:16.029Z,38.67
2018-01-13T10:50:43.836Z,38.33
2018-01-13T10:53:11.204Z,34.00
2018-01-13T10:55:38.643Z,35.00
2018-01-13T10:58:06.041Z,32.27
2018-01-13T11:00:33.424Z,33.33
2018-01-13T11:03:01.001Z,37.20
2018-01-13T11:05:28.392Z,40.40
2018-01-13T11:07:55.838Z,33.40
2018-01-13T11:10:23.262Z,36.03
2018-01-13T11:12:50.682Z,39.57
2018-01-13T11:15:18.061Z,34.33
2018-01-13T11:17:45.474Z,39.73
2018-01-13T11:20:12.829Z,35.83
2018-01-13T11:22:40.224Z,36.10
2018-01-13T11:25:07.588Z,37.60
2018-01-13T11:27:34.941Z,31.93
2018-01-13T11:30:02.360Z,35.50
2018-01-13T11:32:29.816Z,38.53
2018-01-13T11:34:57.309Z,33.57
2018-01-13T11:37:24.719Z,32.90
2018-01-13T11:39:52.167Z,31.47
2018-01-13T11:42:19.694Z,34.40
2018-01-13T11:44:47.058Z,36.67
2018-01-13T11:47:14.567Z,33.87
2018-01-13T11:49:41.969Z,29.00
2018-01-13T11:52:09.481Z,35.93
2018-01-13T11:54:36.864Z,38.80
2018-01-13T11:57:04.268Z,32.77
2018-01-13T11:59:31.650Z,31.13
2018-01-13T12:01:59.027Z,29.87
2018-01-13T12:04:26.449Z,35.47
2018-01-13T12:06:53.946Z,32.23
2018-01-13T12:09:21.373Z,30.17
2018-01-13T12:11:48.804Z,30.90
2018-01-13T12:14:16.188Z,27.13
2018-01-13T12:16:43.545Z,31.13
2018-01-13T12:19:10.941Z,30.87
2018-01-13T12:21:38.303Z,31.00
2018-01-13T12:24:05.665Z,33.90
2018-01-13T12:26:33.045Z,29.67
2018-01-13T12:29:00.448Z,31.03
2018-01-13T12:31:27.946Z,29.17
2018-01-13T12:33:55.309Z,31.07
2018-01-13T12:36:22.761Z,31.60
2018-01-13T12:38:50.244Z,30.60
2018-01-13T12:41:17.626Z,32.20
2018-01-13T12:43:44.988Z,32.63
2018-01-13T12:46:12.400Z,35.30
2018-01-13T12:48:39.837Z,31.77
2018-01-13T12:51:07.207Z,31.20
2018-01-13T12:53:34.643Z,29.60
2018-01-13T12:56:02.024Z,31.47
2018-01-13T12:58:29.417Z,31.00
2018-01-13T13:00:56.775Z,31.03
2018-01-13T13:03:24.228Z,28.60
2018-01-13T13:05:51.748Z,33.00
2018-01-13T13:08:19.133Z,32.77
2018-01-13T13:10:46.513Z,29.93
2018-01-13T13:13:14.738Z,27.97
2018-01-13T13:15:42.124Z,29.97
2018-01-13T13:18:09.661Z,30.30
2018-01-13T13:20:37.053Z,26.73
2018-01-13T13:23:04.473Z,28.27
2018-01-13T13:25:31.904Z,27.57
2018-01-13T13:27:59.301Z,28.30
2018-01-13T13:30:26.669Z,29.00
2018-01-13T13:32:54.065Z,27.67
2018-01-13T13:35:21.650Z,26.27
2018-01-13T13:37:49.033Z,25.03
2018-01-13T13:40:16.436Z,22.63
2018-01-13T13:42:43.913Z,24.27
2018-01-13T13:45:11.269Z,23.20
2018-01-13T13:47:38.645Z,21.73
2018-01-13T13:50:06.115Z,20.43
2018-01-13T13:52:33.468Z,21.23
2018-01-13T13:55:00.849Z,22.43
2018-01-13T13:57:28.265Z,21.43
2018-01-13T13:59:55.649Z,21.60
2018-01-13T14:02:23.085Z,23.40
2018-01-13T14:04:50.476Z,17.90
2018-01-13T14:07:17.857Z,19.80
2018-01-13T14:09:45.261Z,20.27
2018-01-13T14:12:12.664Z,19.10
2018-01-13T14:14:40.137Z,19.67
2018-01-13T14:17:07.539Z,17.10
2018-01-13T14:19:34.930Z,18.70
2018-01-13T14:22:02.292Z,21.43
2018-01-13T14:24:29.693Z,19.70
2018-01-13T14:26:57.089Z,19.90
2018-01-13T14:29:24.605Z,17.17
2018-01-13T14:31:51.982Z,17.63
2018-01-13T14:34:19.418Z,16.17
2018-01-13T14:36:46.821Z,23.23
2018-01-13T14:39:14.206Z,17.90
2018-01-13T14:41:41.592Z,18.80
2018-01-13T14:44:09.007Z,14.30
2018-01-13T14:46:36.417Z,18.57
2018-01-13T14:49:03.853Z,17.50
2018-01-13T14:51:31.269Z,20.23
2018-01-13T14:53:58.677Z,18.20
2018-01-13T14:56:26.093Z,17.07
2018-01-13T14:58:53.509Z,16.73
2018-01-13T15:01:20.888Z,20.10
2018-01-13T15:03:48.301Z,19.40
2018-01-13T15:06:15.901Z,18.50
2018-01-13T15:08:43.383Z,18.07
2018-01-13T15:11:10.733Z,18.30
2018-01-13T15:13:38.170Z,17.57
2018-01-13T15:16:05.539Z,19.67
2018-01-13T15:18:35.884Z,17.40
2018-01-13T15:21:03.308Z,17.90
2018-01-13T15:23:30.697Z,18.67
2018-01-13T15:25:58.297Z,19.23
2018-01-13T15:28:25.676Z,18.90
2018-01-13T15:30:53.054Z,17.50
2018-01-13T15:33:20.478Z,19.23
2018-01-13T15:35:47.826Z,19.70
2018-01-13T15:38:15.181Z,23.43
2018-01-13T15:40:42.581Z,21.80
2018-01-13T15:43:09.964Z,22.63
2018-01-13T15:45:37.352Z,20.67
2018-01-13T15:48:04.848Z,23.70
2018-01-13T15:50:32.222Z,24.30
2018-01-13T15:52:59.578Z,21.33
2018-01-13T15:55:27.001Z,25.80
2018-01-13T15:57:54.377Z,20.33
2018-01-13T16:00:21.821Z,20.90
2018-01-13T16:02:49.247Z,20.53
2018-01-13T16:05:16.627Z,19.67
2018-01-13T16:07:44.053Z,21.53
2018-01-13T16:10:11.444Z,22.03
2018-01-13T16:12:38.826Z,27.80
2018-01-13T16:15:06.241Z,23.17
2018-01-13T16:17:33.621Z,23.67
2018-01-13T16:20:00.997Z,24.80
2018-01-13T16:22:28.409Z,24.40
2018-01-13T16:24:55.781Z,24.70
2018-01-13T16:27:23.164Z,24.83
2018-01-13T16:29:50.579Z,24.43
2018-01-13T16:32:18.042Z,27.27
2018-01-13T16:34:45.405Z,25.77
2018-01-13T16:37:12.844Z,31.83
2018-01-13T16:39:40.212Z,27.23
2018-01-13T16:42:08.260Z,28.03
2018-01-13T16:44:35.770Z,30.57
2018-01-13T16:47:03.140Z,30.90
2018-01-13T16:49:30.599Z,29.60
2018-01-13T16:51:57.977Z,28.53
2018-01-13T16:54:25.364Z,29.83
2018-01-13T16:56:52.770Z,24.50
2018-01-13T16:59:20.177Z,32.50
2018-01-13T17:01:47.573Z,31.13
2018-01-13T17:04:15.076Z,29.23
2018-01-13T17:06:42.436Z,30.63
2018-01-13T17:09:09.794Z,32.40
2018-01-13T17:11:37.185Z,32.03
2018-01-13T17:14:04.600Z,36.03
2018-01-13T17:16:31.985Z,31.73
2018-01-13T17:18:59.415Z,33.63
2018-01-13T17:21:26.913Z,31.60
2018-01-13T17:23:54.288Z,29.30
2018-01-13T17:26:21.843Z,30.63
2018-01-13T17:28:49.281Z,29.07
2018-01-13T17:31:16.659Z,26.13
2018-01-13T17:33:44.348Z,28.57
2018-01-13T17:36:11.707Z,24.37
2018-01-13T17:38:39.682Z,28.90
2018-01-13T17:41:07.081Z,25.70
2018-01-13T17:43:34.458Z,24.80
2018-01-13T17:46:01.838Z,24.03
2018-01-13T17:48:29.239Z,24.27
2018-01-13T17:50:56.597Z,26.77
2018-01-13T17:53:24.001Z,27.90
2018-01-13T17:55:51.572Z,23.20
2018-01-13T17:58:18.956Z,24.70
2018-01-13T18:00:46.336Z,26.07
2018-01-13T18:03:13.729Z,22.43
2018-01-13T18:05:41.138Z,24.30
2018-01-13T18:08:08.490Z,26.17
2018-01-13T18:10:35.904Z,22.57
2018-01-13T18:13:03.261Z,22.13
2018-01-13T18:15:30.626Z,23.03
2018-01-13T18:17:58.053Z,20.47
2018-01-13T18:20:25.444Z,22.53
2018-01-13T18:22:52.815Z,24.60
2018-01-13T18:25:20.226Z,22.93
2018-01-13T18:27:47.622Z,27.40
2018-01-13T18:30:15.002Z,23.00
2018-01-13T18:32:42.637Z,21.30
2018-01-13T18:35:10.038Z,22.60
2018-01-13T18:37:37.448Z,24.53
2018-01-13T18:40:04.876Z,28.20
2018-01-13T18:42:32.301Z,27.20
2018-01-13T18:44:59.678Z,25.60
2018-01-13T18:47:27.085Z,25.70
2018-01-13T18:49:58.060Z,28.33
2018-01-13T18:52:25.429Z,23.27
2018-01-13T18:54:52.786Z,25.97
2018-01-13T18:57:20.186Z,26.00
2018-01-13T18:59:47.613Z,27.07
2018-01-13T19:02:14.971Z,26.63
2018-01-13T19:04:42.376Z,24.77
2018-01-13T19:07:09.744Z,30.33
2018-01-13T19:09:37.214Z,27.00
2018-01-13T19:12:04.611Z,23.33
2018-01-13T19:14:32.095Z,23.83
2018-01-13T19:16:59.476Z,21.40
2018-01-13T19:19:26.893Z,28.87
2018-01-13T19:21:54.273Z,24.93
2018-01-13T19:24:21.634Z,23.97
2018-01-13T19:26:49.025Z,22.90
2018-01-13T19:29:16.432Z,27.83
2018-01-13T19:31:43.796Z,24.67
2018-01-13T19:34:11.161Z,30.70
2018-01-13T19:36:38.565Z,28.83
2018-01-13T19:39:05.949Z,24.80
2018-01-13T19:41:33.464Z,25.30
2018-01-13T19:44:00.834Z,25.40
2018-01-13T19:46:28.208Z,27.17
2018-01-13T19:48:55.633Z,28.77
2018-01-13T19:51:22.989Z,27.53
2018-01-13T19:53:50.382Z,28.50
2018-01-13T19:56:17.969Z,28.80
2018-01-13T19:58:45.317Z,31.27
2018-01-13T20:01:12.710Z,25.00
2018-01-13T20:03:40.097Z,30.37
2018-01-13T20:06:07.459Z,27.90
2018-01-13T20:08:34.842Z,27.30
2018-01-13T20:11:02.281Z,25.60
2018-01-13T20:13:29.733Z,24.47
2018-01-13T20:15:57.114Z,27.57
2018-01-13T20:18:24.469Z,27.00
2018-01-13T20:20:51.884Z,29.00
2018-01-13T20:23:19.250Z,31.60
2018-01-13T20:25:46.622Z,28.23
2018-01-13T20:28:14.025Z,28.50
2018-01-13T20:30:41.417Z,25.50
2018-01-13T20:33:08.817Z,29.57
2018-01-13T20:35:36.402Z,28.10
2018-01-13T20:38:03.881Z,27.33
2018-01-13T20:40:31.294Z,28.80
2018-01-13T20:42:58.681Z,31.63
2018-01-13T20:45:26.074Z,30.23
2018-01-13T20:47:53.497Z,32.17
2018-01-13T20:50:20.904Z,29.47
2018-01-13T20:52:48.314Z,30.87
2018-01-13T20:55:15.688Z,28.43
2018-01-13T20:57:43.136Z,29.10
2018-01-13T21:00:10.553Z,29.40
2018-01-13T21:02:37.908Z,29.33
2018-01-13T21:05:05.517Z,32.10
2018-01-13T21:07:32.936Z,31.10
2018-01-13T21:10:00.349Z,28.70
2018-01-13T21:12:27.929Z,28.60
2018-01-13T21:14:56.101Z,30.30
2018-01-13T21:17:23.538Z,28.93
2018-01-13T21:19:51.056Z,30.20
2018-01-13T21:22:18.434Z,29.90
2018-01-13T21:24:45.843Z,29.23
2018-01-13T21:27:13.285Z,32.10
2018-01-13T21:29:40.693Z,29.87
2018-01-13T21:32:08.153Z,32.40
2018-01-13T21:34:35.517Z,27.83
2018-01-13T21:37:02.902Z,29.37
2018-01-13T21:39:30.378Z,28.60
2018-01-13T21:41:57.834Z,29.17
2018-01-13T21:44:25.192Z,31.80
2018-01-13T21:46:52.827Z,26.03
2018-01-13T21:49:20.308Z,29.77
2018-01-13T21:51:47.741Z,29.67
2018-01-13T21:54:15.137Z,33.63
2018-01-13T21:56:42.547Z,29.77
2018-01-13T21:59:09.906Z,30.40
2018-01-13T22:01:37.317Z,27.13
2018-01-13T22:04:04.677Z,27.30
2018-01-13T22:06:32.041Z,28.20
2018-01-13T22:08:59.431Z,29.10
2018-01-13T22:11:26.821Z,28.53
2018-01-13T22:13:54.236Z,32.53
2018-01-13T22:16:21.649Z,30.70
2018-01-13T22:18:49.029Z,28.77
2018-01-13T22:21:16.453Z,31.80
2018-01-13T22:23:43.818Z,34.23
2018-01-13T22:26:11.178Z,34.10
2018-01-13T22:28:38.608Z,30.10
2018-01-13T22:31:05.980Z,32.57
2018-01-13T22:33:33.340Z,30.20
2018-01-13T22:36:00.737Z,30.07
2018-01-13T22:38:28.105Z,27.70
2018-01-13T22:40:55.543Z,33.20
2018-01-13T22:43:22.929Z,36.20
2018-01-13T22:45:50.333Z,29.60
2018-01-13T22:48:17.742Z,32.00
2018-01-13T22:50:45.125Z,30.13
2018-01-13T22:53:12.751Z,29.03
2018-01-13T22:55:40.149Z,31.23
2018-01-13T22:58:07.542Z,29.93
2018-01-13T23:00:54.778Z,32.30
2018-01-13T23:03:22.142Z,32.40
2018-01-13T23:05:49.545Z,31.77
2018-01-13T23:08:16.956Z,28.67
2018-01-13T23:10:44.320Z,36.17
2018-01-13T23:13:11.726Z,30.57
2018-01-13T23:15:39.125Z,32.00
2018-01-13T23:18:06.494Z,34.80
2018-01-13T23:20:33.937Z,31.40
2018-01-13T23:23:01.312Z,32.55
2018-01-13T23:25:28.728Z,29.80
2018-01-13T23:27:56.101Z,33.80
2018-01-13T23:30:23.457Z,31.73
2018-01-13T23:32:51.098Z,33.23
2018-01-13T23:35:18.448Z,36.80
2018-01-13T23:37:45.829Z,34.30
2018-01-13T23:40:13.256Z,36.13
2018-01-13T23:42:40.648Z,32.33
2018-01-13T23:45:08.033Z,37.50
2018-01-13T23:47:35.449Z,32.80
2018-01-13T23:50:02.937Z,31.27
2018-01-13T23:52:31.192Z,32.27
2018-01-13T23:54:58.638Z,36.67
2018-01-13T23:57:26.120Z,33.23
2018-01-13T23:59:53.479Z,38.43
